sensor_id;sensor_type;location;lat;lon;timestamp;temperature;humidity
18321;DHT22;54904;54.350;18.664;2024-02-23T00:01:56;9.90;99.90
18321;DHT22;54904;54.350;18.664;2024-02-23T00:04:23;9.90;99.90
18321;DHT22;54904;54.350;18.664;2024-02-23T00:06:52;9.90;99.90
18321;DHT22;54904;54.350;18.664;2024-02-23T00:09:19;10.00;99.90
18321;DHT22;54904;54.350;18.664;2024-02-23T00:11:46;9.90;99.90
18321;DHT22;54904;54.350;18.664;2024-02-23T00:14:15;9.90;99.90
18321;DHT22;54904;54.350;18.664;2024-02-23T00:16:44;9.90;99.90
18321;DHT22;54904;54.350;18.664;2024-02-23T00:19:11;10.00;99.90
18321;DHT22;54904;54.350;18.664;2024-02-23T00:21:38;10.00;99.90
18321;DHT22;54904;54.350;18.664;2024-02-23T00:24:07;10.00;99.90
18321;DHT22;54904;54.350;18.664;2024-02-23T00:26:34;10.00;99.90
18321;DHT22;54904;54.350;18.664;2024-02-23T00:29:02;9.90;99.90
18321;DHT22;54904;54.350;18.664;2024-02-23T00:31:29;9.90;99.90
18321;DHT22;54904;54.350;18.664;2024-02-23T00:33:56;9.90;99.90
18321;DHT22;54904;54.350;18.664;2024-02-23T00:36:23;9.90;99.90
18321;DHT22;54904;54.350;18.664;2024-02-23T00:38:50;9.90;99.90
18321;DHT22;54904;54.350;18.664;2024-02-23T00:41:19;9.80;99.90
18321;DHT22;54904;54.350;18.664;2024-02-23T00:43:46;9.80;99.90
18321;DHT22;54904;54.350;18.664;2024-02-23T00:46:13;9.80;99.90
18321;DHT22;54904;54.350;18.664;2024-02-23T00:48:40;9.90;99.90
18321;DHT22;54904;54.350;18.664;2024-02-23T00:51:07;9.90;99.90
18321;DHT22;54904;54.350;18.664;2024-02-23T00:53:34;9.90;99.90
18321;DHT22;54904;54.350;18.664;2024-02-23T00:56:01;10.00;99.90
18321;DHT22;54904;54.350;18.664;2024-02-23T00:58:30;10.00;99.90
18321;DHT22;54904;54.350;18.664;2024-02-23T01:00:57;10.00;99.90
18321;DHT22;54904;54.350;18.664;2024-02-23T01:03:24;10.00;99.90
18321;DHT22;54904;54.350;18.664;2024-02-23T01:05:51;10.00;99.90
18321;DHT22;54904;54.350;18.664;2024-02-23T01:08:19;10.00;99.90
18321;DHT22;54904;54.350;18.664;2024-02-23T01:10:46;10.00;99.90
18321;DHT22;54904;54.350;18.664;2024-02-23T01:13:13;10.00;99.90
18321;DHT22;54904;54.350;18.664;2024-02-23T01:15:42;10.00;99.90
18321;DHT22;54904;54.350;18.664;2024-02-23T01:18:09;10.10;99.90
18321;DHT22;54904;54.350;18.664;2024-02-23T01:20:36;10.10;99.90
18321;DHT22;54904;54.350;18.664;2024-02-23T01:23:03;10.10;99.90
18321;DHT22;54904;54.350;18.664;2024-02-23T01:25:30;10.10;99.90
18321;DHT22;54904;54.350;18.664;2024-02-23T01:28:00;10.10;99.90
18321;DHT22;54904;54.350;18.664;2024-02-23T01:30:29;10.10;99.90
18321;DHT22;54904;54.350;18.664;2024-02-23T01:32:57;10.10;99.90
18321;DHT22;54904;54.350;18.664;2024-02-23T01:35:24;10.10;99.90
18321;DHT22;54904;54.350;18.664;2024-02-23T01:37:51;10.10;99.90
18321;DHT22;54904;54.350;18.664;2024-02-23T01:40:18;10.10;99.90
18321;DHT22;54904;54.350;18.664;2024-02-23T01:42:46;10.10;99.90
18321;DHT22;54904;54.350;18.664;2024-02-23T01:45:13;10.10;99.90
18321;DHT22;54904;54.350;18.664;2024-02-23T01:47:40;10.10;99.90
18321;DHT22;54904;54.350;18.664;2024-02-23T01:50:09;10.10;99.90
18321;DHT22;54904;54.350;18.664;2024-02-23T01:52:38;10.00;99.90
18321;DHT22;54904;54.350;18.664;2024-02-23T01:55:06;10.00;99.90
18321;DHT22;54904;54.350;18.664;2024-02-23T01:57:33;10.00;99.90
18321;DHT22;54904;54.350;18.664;2024-02-23T02:00:01;10.00;99.90
18321;DHT22;54904;54.350;18.664;2024-02-23T02:02:30;10.00;99.90
18321;DHT22;54904;54.350;18.664;2024-02-23T02:04:57;10.10;99.90
18321;DHT22;54904;54.350;18.664;2024-02-23T02:07:26;10.00;99.90
18321;DHT22;54904;54.350;18.664;2024-02-23T02:09:54;10.10;99.90
18321;DHT22;54904;54.350;18.664;2024-02-23T02:12:26;10.00;99.90
18321;DHT22;54904;54.350;18.664;2024-02-23T02:14:54;10.10;99.90
18321;DHT22;54904;54.350;18.664;2024-02-23T02:17:21;10.10;99.90
18321;DHT22;54904;54.350;18.664;2024-02-23T02:19:48;10.10;99.90
18321;DHT22;54904;54.350;18.664;2024-02-23T02:22:15;10.10;99.90
18321;DHT22;54904;54.350;18.664;2024-02-23T02:24:44;10.10;99.90
18321;DHT22;54904;54.350;18.664;2024-02-23T02:27:12;10.10;99.90
18321;DHT22;54904;54.350;18.664;2024-02-23T02:29:39;10.10;99.90
18321;DHT22;54904;54.350;18.664;2024-02-23T02:32:07;10.10;99.90
18321;DHT22;54904;54.350;18.664;2024-02-23T02:34:34;10.10;99.90
18321;DHT22;54904;54.350;18.664;2024-02-23T02:37:01;10.10;99.90
18321;DHT22;54904;54.350;18.664;2024-02-23T02:39:28;10.10;99.90
18321;DHT22;54904;54.350;18.664;2024-02-23T02:41:57;10.10;99.90
18321;DHT22;54904;54.350;18.664;2024-02-23T02:44:24;10.10;99.90
18321;DHT22;54904;54.350;18.664;2024-02-23T02:46:52;10.10;99.90
18321;DHT22;54904;54.350;18.664;2024-02-23T02:49:19;10.10;99.90
18321;DHT22;54904;54.350;18.664;2024-02-23T02:51:46;10.10;99.90
18321;DHT22;54904;54.350;18.664;2024-02-23T02:54:13;10.10;99.90
18321;DHT22;54904;54.350;18.664;2024-02-23T02:56:42;10.10;99.90
18321;DHT22;54904;54.350;18.664;2024-02-23T02:59:10;10.10;99.90
18321;DHT22;54904;54.350;18.664;2024-02-23T03:01:37;10.10;99.90
18321;DHT22;54904;54.350;18.664;2024-02-23T03:04:04;10.10;99.90
18321;DHT22;54904;54.350;18.664;2024-02-23T03:06:31;10.10;99.90
18321;DHT22;54904;54.350;18.664;2024-02-23T03:08:58;10.10;99.90
18321;DHT22;54904;54.350;18.664;2024-02-23T03:11:26;10.20;99.90
18321;DHT22;54904;54.350;18.664;2024-02-23T03:13:53;10.20;99.90
18321;DHT22;54904;54.350;18.664;2024-02-23T03:16:21;10.20;99.90
18321;DHT22;54904;54.350;18.664;2024-02-23T03:18:51;10.20;99.90
18321;DHT22;54904;54.350;18.664;2024-02-23T03:21:19;10.20;99.90
18321;DHT22;54904;54.350;18.664;2024-02-23T03:23:47;10.20;99.90
18321;DHT22;54904;54.350;18.664;2024-02-23T03:26:14;10.20;99.90
18321;DHT22;54904;54.350;18.664;2024-02-23T03:28:42;10.20;99.90
18321;DHT22;54904;54.350;18.664;2024-02-23T03:31:08;10.20;99.90
18321;DHT22;54904;54.350;18.664;2024-02-23T03:33:37;10.20;99.90
18321;DHT22;54904;54.350;18.664;2024-02-23T03:36:04;10.20;99.90
18321;DHT22;54904;54.350;18.664;2024-02-23T03:38:32;10.20;99.90
18321;DHT22;54904;54.350;18.664;2024-02-23T03:40:59;10.20;99.90
18321;DHT22;54904;54.350;18.664;2024-02-23T03:43:27;10.20;99.90
18321;DHT22;54904;54.350;18.664;2024-02-23T03:45:54;10.20;99.90
18321;DHT22;54904;54.350;18.664;2024-02-23T03:48:21;10.20;99.90
18321;DHT22;54904;54.350;18.664;2024-02-23T03:50:49;10.20;99.90
18321;DHT22;54904;54.350;18.664;2024-02-23T03:53:16;10.30;99.90
18321;DHT22;54904;54.350;18.664;2024-02-23T03:55:43;10.30;99.90
18321;DHT22;54904;54.350;18.664;2024-02-23T03:58:10;10.30;99.90
18321;DHT22;54904;54.350;18.664;2024-02-23T04:00:37;10.30;99.90
18321;DHT22;54904;54.350;18.664;2024-02-23T04:03:05;10.40;99.90
18321;DHT22;54904;54.350;18.664;2024-02-23T04:05:32;10.40;99.90
18321;DHT22;54904;54.350;18.664;2024-02-23T04:08:00;10.40;99.90
18321;DHT22;54904;54.350;18.664;2024-02-23T04:10:27;10.40;99.90
18321;DHT22;54904;54.350;18.664;2024-02-23T04:12:54;10.40;99.90
18321;DHT22;54904;54.350;18.664;2024-02-23T04:15:22;10.40;99.90
18321;DHT22;54904;54.350;18.664;2024-02-23T04:17:49;10.40;99.90
18321;DHT22;54904;54.350;18.664;2024-02-23T04:20:16;10.40;99.90
18321;DHT22;54904;54.350;18.664;2024-02-23T04:22:43;10.40;99.90
18321;DHT22;54904;54.350;18.664;2024-02-23T04:25:12;10.40;99.90
18321;DHT22;54904;54.350;18.664;2024-02-23T04:27:39;10.40;99.90
18321;DHT22;54904;54.350;18.664;2024-02-23T04:30:07;10.50;99.90
18321;DHT22;54904;54.350;18.664;2024-02-23T04:32:34;10.50;99.90
18321;DHT22;54904;54.350;18.664;2024-02-23T04:35:01;10.50;99.90
18321;DHT22;54904;54.350;18.664;2024-02-23T04:37:28;10.50;99.90
18321;DHT22;54904;54.350;18.664;2024-02-23T04:39:55;10.50;99.90
18321;DHT22;54904;54.350;18.664;2024-02-23T04:42:23;10.50;99.90
18321;DHT22;54904;54.350;18.664;2024-02-23T04:44:50;10.50;99.90
18321;DHT22;54904;54.350;18.664;2024-02-23T04:47:20;10.50;99.90
18321;DHT22;54904;54.350;18.664;2024-02-23T04:49:47;10.50;99.90
18321;DHT22;54904;54.350;18.664;2024-02-23T04:52:15;10.50;99.90
18321;DHT22;54904;54.350;18.664;2024-02-23T04:54:42;10.50;99.90
18321;DHT22;54904;54.350;18.664;2024-02-23T04:57:09;10.60;99.90
18321;DHT22;54904;54.350;18.664;2024-02-23T04:59:38;10.60;99.90
18321;DHT22;54904;54.350;18.664;2024-02-23T05:02:05;10.60;99.90
18321;DHT22;54904;54.350;18.664;2024-02-23T05:04:32;10.60;99.90
18321;DHT22;54904;54.350;18.664;2024-02-23T05:06:59;10.60;99.90
18321;DHT22;54904;54.350;18.664;2024-02-23T05:09:27;10.60;99.90
18321;DHT22;54904;54.350;18.664;2024-02-23T05:11:54;10.70;99.90
18321;DHT22;54904;54.350;18.664;2024-02-23T05:14:21;10.70;99.90
18321;DHT22;54904;54.350;18.664;2024-02-23T05:16:50;10.70;99.90
18321;DHT22;54904;54.350;18.664;2024-02-23T05:19:17;10.70;99.90
18321;DHT22;54904;54.350;18.664;2024-02-23T05:21:44;10.70;99.90
18321;DHT22;54904;54.350;18.664;2024-02-23T05:24:11;10.70;99.90
18321;DHT22;54904;54.350;18.664;2024-02-23T05:26:38;10.70;99.90
18321;DHT22;54904;54.350;18.664;2024-02-23T05:29:05;10.70;99.90
18321;DHT22;54904;54.350;18.664;2024-02-23T05:31:48;10.70;99.90
18321;DHT22;54904;54.350;18.664;2024-02-23T05:34:17;10.70;99.90
18321;DHT22;54904;54.350;18.664;2024-02-23T05:36:44;10.70;99.90
18321;DHT22;54904;54.350;18.664;2024-02-23T05:39:12;10.70;99.90
18321;DHT22;54904;54.350;18.664;2024-02-23T05:41:41;10.70;99.90
18321;DHT22;54904;54.350;18.664;2024-02-23T05:44:08;10.70;99.90
18321;DHT22;54904;54.350;18.664;2024-02-23T05:46:36;10.70;99.90
18321;DHT22;54904;54.350;18.664;2024-02-23T05:49:03;10.70;99.90
18321;DHT22;54904;54.350;18.664;2024-02-23T05:51:32;10.70;99.90
18321;DHT22;54904;54.350;18.664;2024-02-23T05:53:59;10.80;99.90
18321;DHT22;54904;54.350;18.664;2024-02-23T05:56:26;10.70;99.90
18321;DHT22;54904;54.350;18.664;2024-02-23T05:58:53;10.70;99.90
18321;DHT22;54904;54.350;18.664;2024-02-23T06:01:21;10.70;99.90
18321;DHT22;54904;54.350;18.664;2024-02-23T06:03:48;10.80;99.90
18321;DHT22;54904;54.350;18.664;2024-02-23T06:06:15;10.80;99.90
18321;DHT22;54904;54.350;18.664;2024-02-23T06:08:43;10.70;99.90
18321;DHT22;54904;54.350;18.664;2024-02-23T06:11:12;10.70;99.90
18321;DHT22;54904;54.350;18.664;2024-02-23T06:13:39;10.80;99.90
18321;DHT22;54904;54.350;18.664;2024-02-23T06:16:10;10.80;99.90
18321;DHT22;54904;54.350;18.664;2024-02-23T06:18:37;10.80;99.90
18321;DHT22;54904;54.350;18.664;2024-02-23T06:21:12;10.80;99.90
18321;DHT22;54904;54.350;18.664;2024-02-23T06:23:39;10.80;99.90
18321;DHT22;54904;54.350;18.664;2024-02-23T06:26:08;10.80;99.90
18321;DHT22;54904;54.350;18.664;2024-02-23T06:28:35;10.90;99.90
18321;DHT22;54904;54.350;18.664;2024-02-23T06:31:04;10.90;99.90
18321;DHT22;54904;54.350;18.664;2024-02-23T06:33:31;10.90;99.90
18321;DHT22;54904;54.350;18.664;2024-02-23T06:35:58;10.90;99.90
18321;DHT22;54904;54.350;18.664;2024-02-23T06:38:26;10.90;99.90
18321;DHT22;54904;54.350;18.664;2024-02-23T06:40:54;11.00;99.90
18321;DHT22;54904;54.350;18.664;2024-02-23T06:43:23;11.00;99.90
18321;DHT22;54904;54.350;18.664;2024-02-23T06:45:50;11.00;99.90
18321;DHT22;54904;54.350;18.664;2024-02-23T06:48:18;11.10;99.90
18321;DHT22;54904;54.350;18.664;2024-02-23T06:50:45;11.10;99.90
18321;DHT22;54904;54.350;18.664;2024-02-23T06:53:12;11.10;99.90
18321;DHT22;54904;54.350;18.664;2024-02-23T06:55:39;11.20;99.90
18321;DHT22;54904;54.350;18.664;2024-02-23T06:58:07;11.20;99.90
18321;DHT22;54904;54.350;18.664;2024-02-23T07:00:37;11.20;99.90
18321;DHT22;54904;54.350;18.664;2024-02-23T07:03:04;11.20;99.90
18321;DHT22;54904;54.350;18.664;2024-02-23T07:05:31;11.20;99.90
18321;DHT22;54904;54.350;18.664;2024-02-23T07:07:58;11.20;99.90
18321;DHT22;54904;54.350;18.664;2024-02-23T07:10:26;11.20;99.90
18321;DHT22;54904;54.350;18.664;2024-02-23T07:12:53;11.20;99.90
18321;DHT22;54904;54.350;18.664;2024-02-23T07:15:22;11.30;99.90
18321;DHT22;54904;54.350;18.664;2024-02-23T07:17:51;11.30;99.90
18321;DHT22;54904;54.350;18.664;2024-02-23T07:20:19;11.30;99.90
18321;DHT22;54904;54.350;18.664;2024-02-23T07:22:46;11.30;99.90
18321;DHT22;54904;54.350;18.664;2024-02-23T07:25:16;11.30;99.90
18321;DHT22;54904;54.350;18.664;2024-02-23T07:27:44;11.40;99.90
18321;DHT22;54904;54.350;18.664;2024-02-23T07:30:12;11.40;99.90
18321;DHT22;54904;54.350;18.664;2024-02-23T07:32:39;11.40;99.90
18321;DHT22;54904;54.350;18.664;2024-02-23T07:35:08;11.40;99.90
18321;DHT22;54904;54.350;18.664;2024-02-23T07:37:36;11.50;99.90
18321;DHT22;54904;54.350;18.664;2024-02-23T07:40:04;11.40;99.90
18321;DHT22;54904;54.350;18.664;2024-02-23T07:42:32;11.50;99.90
18321;DHT22;54904;54.350;18.664;2024-02-23T07:45:01;11.50;99.90
18321;DHT22;54904;54.350;18.664;2024-02-23T07:47:30;11.60;99.90
18321;DHT22;54904;54.350;18.664;2024-02-23T07:49:57;11.60;99.90
18321;DHT22;54904;54.350;18.664;2024-02-23T07:52:25;11.70;99.90
18321;DHT22;54904;54.350;18.664;2024-02-23T07:54:53;11.70;99.90
18321;DHT22;54904;54.350;18.664;2024-02-23T07:57:20;11.70;99.90
18321;DHT22;54904;54.350;18.664;2024-02-23T07:59:48;11.70;99.90
18321;DHT22;54904;54.350;18.664;2024-02-23T08:02:15;11.70;99.90
18321;DHT22;54904;54.350;18.664;2024-02-23T08:04:42;11.70;99.90
18321;DHT22;54904;54.350;18.664;2024-02-23T08:07:10;11.80;99.90
18321;DHT22;54904;54.350;18.664;2024-02-23T08:09:39;11.80;99.90
18321;DHT22;54904;54.350;18.664;2024-02-23T08:12:07;11.80;99.90
18321;DHT22;54904;54.350;18.664;2024-02-23T08:14:34;11.80;99.90
18321;DHT22;54904;54.350;18.664;2024-02-23T08:17:01;11.80;99.90
18321;DHT22;54904;54.350;18.664;2024-02-23T08:19:28;11.90;99.90
18321;DHT22;54904;54.350;18.664;2024-02-23T08:21:55;11.90;99.90
18321;DHT22;54904;54.350;18.664;2024-02-23T08:24:23;11.90;99.90
18321;DHT22;54904;54.350;18.664;2024-02-23T08:26:53;11.90;99.90
18321;DHT22;54904;54.350;18.664;2024-02-23T08:29:20;12.00;99.90
18321;DHT22;54904;54.350;18.664;2024-02-23T08:31:48;12.00;99.90
18321;DHT22;54904;54.350;18.664;2024-02-23T08:34:15;11.90;99.90
18321;DHT22;54904;54.350;18.664;2024-02-23T08:36:43;12.00;99.90
18321;DHT22;54904;54.350;18.664;2024-02-23T08:39:10;12.00;99.90
18321;DHT22;54904;54.350;18.664;2024-02-23T08:41:37;12.00;99.90
18321;DHT22;54904;54.350;18.664;2024-02-23T08:44:06;12.00;99.90
18321;DHT22;54904;54.350;18.664;2024-02-23T08:46:33;12.10;99.90
18321;DHT22;54904;54.350;18.664;2024-02-23T08:49:00;12.10;99.90
18321;DHT22;54904;54.350;18.664;2024-02-23T08:51:27;12.10;99.90
18321;DHT22;54904;54.350;18.664;2024-02-23T08:53:54;12.10;99.90
18321;DHT22;54904;54.350;18.664;2024-02-23T08:56:22;12.10;99.90
18321;DHT22;54904;54.350;18.664;2024-02-23T08:58:50;12.10;99.90
18321;DHT22;54904;54.350;18.664;2024-02-23T09:01:18;12.10;99.90
18321;DHT22;54904;54.350;18.664;2024-02-23T09:03:45;12.10;99.90
18321;DHT22;54904;54.350;18.664;2024-02-23T09:06:12;12.10;99.90
18321;DHT22;54904;54.350;18.664;2024-02-23T09:08:40;12.10;99.90
18321;DHT22;54904;54.350;18.664;2024-02-23T09:11:07;12.10;99.90
18321;DHT22;54904;54.350;18.664;2024-02-23T09:13:34;12.10;99.90
18321;DHT22;54904;54.350;18.664;2024-02-23T09:16:01;12.10;99.90
18321;DHT22;54904;54.350;18.664;2024-02-23T09:18:30;12.10;99.90
18321;DHT22;54904;54.350;18.664;2024-02-23T09:20:57;12.10;99.90
18321;DHT22;54904;54.350;18.664;2024-02-23T09:23:24;12.10;99.90
18321;DHT22;54904;54.350;18.664;2024-02-23T09:25:51;12.10;99.90
18321;DHT22;54904;54.350;18.664;2024-02-23T09:28:18;12.10;99.90
18321;DHT22;54904;54.350;18.664;2024-02-23T09:30:46;12.10;99.90
18321;DHT22;54904;54.350;18.664;2024-02-23T09:33:13;12.20;99.90
18321;DHT22;54904;54.350;18.664;2024-02-23T09:35:41;12.20;99.90
18321;DHT22;54904;54.350;18.664;2024-02-23T09:38:08;12.20;99.90
18321;DHT22;54904;54.350;18.664;2024-02-23T09:40:35;12.20;99.90
18321;DHT22;54904;54.350;18.664;2024-02-23T09:43:03;12.20;99.90
18321;DHT22;54904;54.350;18.664;2024-02-23T09:45:34;12.30;99.90
18321;DHT22;54904;54.350;18.664;2024-02-23T09:48:02;12.30;99.90
18321;DHT22;54904;54.350;18.664;2024-02-23T09:50:30;12.30;99.90
18321;DHT22;54904;54.350;18.664;2024-02-23T09:53:01;12.30;99.90
18321;DHT22;54904;54.350;18.664;2024-02-23T09:55:30;12.30;99.90
18321;DHT22;54904;54.350;18.664;2024-02-23T09:57:58;12.30;99.90
18321;DHT22;54904;54.350;18.664;2024-02-23T10:00:26;12.30;99.90
18321;DHT22;54904;54.350;18.664;2024-02-23T10:02:54;12.40;99.90
18321;DHT22;54904;54.350;18.664;2024-02-23T10:05:23;12.40;99.90
18321;DHT22;54904;54.350;18.664;2024-02-23T10:07:55;12.40;99.90
18321;DHT22;54904;54.350;18.664;2024-02-23T10:10:29;12.40;99.90
18321;DHT22;54904;54.350;18.664;2024-02-23T10:12:57;12.40;99.90
18321;DHT22;54904;54.350;18.664;2024-02-23T10:15:24;12.40;99.90
18321;DHT22;54904;54.350;18.664;2024-02-23T10:17:52;12.40;99.90
18321;DHT22;54904;54.350;18.664;2024-02-23T10:20:20;12.40;99.90
18321;DHT22;54904;54.350;18.664;2024-02-23T10:22:47;12.40;99.90
18321;DHT22;54904;54.350;18.664;2024-02-23T10:25:14;12.40;99.90
18321;DHT22;54904;54.350;18.664;2024-02-23T10:27:43;12.40;99.90
18321;DHT22;54904;54.350;18.664;2024-02-23T10:30:11;12.50;99.90
18321;DHT22;54904;54.350;18.664;2024-02-23T10:32:38;12.50;99.90
18321;DHT22;54904;54.350;18.664;2024-02-23T10:35:10;12.50;99.90
18321;DHT22;54904;54.350;18.664;2024-02-23T10:37:37;12.50;99.90
18321;DHT22;54904;54.350;18.664;2024-02-23T10:40:06;12.50;99.90
18321;DHT22;54904;54.350;18.664;2024-02-23T10:42:36;12.50;99.90
18321;DHT22;54904;54.350;18.664;2024-02-23T10:45:07;12.50;99.60
18321;DHT22;54904;54.350;18.664;2024-02-23T10:47:35;12.60;99.40
18321;DHT22;54904;54.350;18.664;2024-02-23T10:50:03;12.60;99.50
18321;DHT22;54904;54.350;18.664;2024-02-23T10:52:31;12.60;99.00
18321;DHT22;54904;54.350;18.664;2024-02-23T10:55:00;12.70;98.80
18321;DHT22;54904;54.350;18.664;2024-02-23T10:57:30;12.80;98.30
18321;DHT22;54904;54.350;18.664;2024-02-23T10:59:58;13.00;98.30
18321;DHT22;54904;54.350;18.664;2024-02-23T11:02:28;13.10;97.80
18321;DHT22;54904;54.350;18.664;2024-02-23T11:04:57;13.30;97.40
18321;DHT22;54904;54.350;18.664;2024-02-23T11:07:26;13.50;96.50
18321;DHT22;54904;54.350;18.664;2024-02-23T11:09:54;13.60;95.90
18321;DHT22;54904;54.350;18.664;2024-02-23T11:12:25;13.80;96.00
18321;DHT22;54904;54.350;18.664;2024-02-23T11:14:56;13.70;94.80
18321;DHT22;54904;54.350;18.664;2024-02-23T11:17:28;13.60;94.70
18321;DHT22;54904;54.350;18.664;2024-02-23T11:19:56;13.50;94.60
18321;DHT22;54904;54.350;18.664;2024-02-23T11:22:24;13.40;94.70
18321;DHT22;54904;54.350;18.664;2024-02-23T11:24:52;13.30;94.60
18321;DHT22;54904;54.350;18.664;2024-02-23T11:27:19;13.20;94.10
18321;DHT22;54904;54.350;18.664;2024-02-23T11:29:46;13.10;94.00
18321;DHT22;54904;54.350;18.664;2024-02-23T11:32:15;13.00;94.10
18321;DHT22;54904;54.350;18.664;2024-02-23T11:34:54;13.00;93.80
18321;DHT22;54904;54.350;18.664;2024-02-23T11:37:22;12.90;93.90
18321;DHT22;54904;54.350;18.664;2024-02-23T11:39:50;12.90;93.60
18321;DHT22;54904;54.350;18.664;2024-02-23T11:42:18;12.90;94.00
18321;DHT22;54904;54.350;18.664;2024-02-23T11:44:45;12.90;94.20
18321;DHT22;54904;54.350;18.664;2024-02-23T11:47:12;12.90;94.30
18321;DHT22;54904;54.350;18.664;2024-02-23T11:49:39;13.00;94.20
18321;DHT22;54904;54.350;18.664;2024-02-23T11:52:07;13.00;94.20
18321;DHT22;54904;54.350;18.664;2024-02-23T11:54:35;13.00;93.80
18321;DHT22;54904;54.350;18.664;2024-02-23T11:57:02;13.00;93.80
18321;DHT22;54904;54.350;18.664;2024-02-23T11:59:29;12.90;93.70
18321;DHT22;54904;54.350;18.664;2024-02-23T12:01:56;12.90;93.70
18321;DHT22;54904;54.350;18.664;2024-02-23T12:04:26;13.00;93.80
18321;DHT22;54904;54.350;18.664;2024-02-23T12:06:53;13.00;93.70
18321;DHT22;54904;54.350;18.664;2024-02-23T12:09:21;13.10;94.00
18321;DHT22;54904;54.350;18.664;2024-02-23T12:11:49;13.10;94.10
18321;DHT22;54904;54.350;18.664;2024-02-23T12:14:16;13.20;94.30
18321;DHT22;54904;54.350;18.664;2024-02-23T12:16:43;13.30;94.20
18321;DHT22;54904;54.350;18.664;2024-02-23T12:19:11;13.50;94.30
18321;DHT22;54904;54.350;18.664;2024-02-23T12:21:38;14.00;94.60
18321;DHT22;54904;54.350;18.664;2024-02-23T12:24:06;14.40;93.70
18321;DHT22;54904;54.350;18.664;2024-02-23T12:26:35;14.80;93.60
18321;DHT22;54904;54.350;18.664;2024-02-23T12:29:03;15.00;92.70
18321;DHT22;54904;54.350;18.664;2024-02-23T12:31:31;15.10;92.60
18321;DHT22;54904;54.350;18.664;2024-02-23T12:33:58;15.10;92.30
18321;DHT22;54904;54.350;18.664;2024-02-23T12:36:25;15.10;92.20
18321;DHT22;54904;54.350;18.664;2024-02-23T12:38:53;15.00;92.20
18321;DHT22;54904;54.350;18.664;2024-02-23T12:41:20;14.90;91.90
18321;DHT22;54904;54.350;18.664;2024-02-23T12:43:48;14.90;92.00
18321;DHT22;54904;54.350;18.664;2024-02-23T12:46:15;14.80;91.90
18321;DHT22;54904;54.350;18.664;2024-02-23T12:48:43;14.80;91.90
18321;DHT22;54904;54.350;18.664;2024-02-23T12:51:10;14.60;91.90
18321;DHT22;54904;54.350;18.664;2024-02-23T12:53:38;14.60;91.60
18321;DHT22;54904;54.350;18.664;2024-02-23T12:56:07;14.40;91.20
18321;DHT22;54904;54.350;18.664;2024-02-23T12:58:35;14.30;91.10
18321;DHT22;54904;54.350;18.664;2024-02-23T13:01:04;14.30;91.10
18321;DHT22;54904;54.350;18.664;2024-02-23T13:03:32;14.30;91.00
18321;DHT22;54904;54.350;18.664;2024-02-23T13:05:59;14.30;90.90
18321;DHT22;54904;54.350;18.664;2024-02-23T13:08:27;14.30;91.10
18321;DHT22;54904;54.350;18.664;2024-02-23T13:10:54;14.30;91.00
18321;DHT22;54904;54.350;18.664;2024-02-23T13:13:22;14.40;91.10
18321;DHT22;54904;54.350;18.664;2024-02-23T13:15:50;14.60;90.90
18321;DHT22;54904;54.350;18.664;2024-02-23T13:18:19;14.90;90.30
18321;DHT22;54904;54.350;18.664;2024-02-23T13:20:46;14.90;90.10
18321;DHT22;54904;54.350;18.664;2024-02-23T13:23:14;14.80;90.00
18321;DHT22;54904;54.350;18.664;2024-02-23T13:25:42;14.70;90.10
18321;DHT22;54904;54.350;18.664;2024-02-23T13:28:10;14.60;90.20
18321;DHT22;54904;54.350;18.664;2024-02-23T13:30:37;14.50;90.30
18321;DHT22;54904;54.350;18.664;2024-02-23T13:33:05;14.40;90.50
18321;DHT22;54904;54.350;18.664;2024-02-23T13:35:35;14.30;90.70
18321;DHT22;54904;54.350;18.664;2024-02-23T13:38:02;14.30;90.80
18321;DHT22;54904;54.350;18.664;2024-02-23T13:40:30;14.20;90.90
18321;DHT22;54904;54.350;18.664;2024-02-23T13:42:57;14.10;91.20
18321;DHT22;54904;54.350;18.664;2024-02-23T13:45:25;13.90;91.40
18321;DHT22;54904;54.350;18.664;2024-02-23T13:47:59;13.80;91.40
18321;DHT22;54904;54.350;18.664;2024-02-23T13:50:26;13.80;91.70
18321;DHT22;54904;54.350;18.664;2024-02-23T13:52:55;13.70;91.80
18321;DHT22;54904;54.350;18.664;2024-02-23T13:55:22;13.60;91.90
18321;DHT22;54904;54.350;18.664;2024-02-23T13:57:50;13.60;92.00
18321;DHT22;54904;54.350;18.664;2024-02-23T14:00:18;13.50;92.10
18321;DHT22;54904;54.350;18.664;2024-02-23T14:02:46;13.40;92.20
18321;DHT22;54904;54.350;18.664;2024-02-23T14:05:13;13.40;92.20
18321;DHT22;54904;54.350;18.664;2024-02-23T14:07:41;13.40;92.20
18321;DHT22;54904;54.350;18.664;2024-02-23T14:10:09;13.30;92.10
18321;DHT22;54904;54.350;18.664;2024-02-23T14:12:37;13.30;92.00
18321;DHT22;54904;54.350;18.664;2024-02-23T14:15:04;13.30;92.10
18321;DHT22;54904;54.350;18.664;2024-02-23T14:17:32;13.30;92.20
18321;DHT22;54904;54.350;18.664;2024-02-23T14:20:00;13.20;92.20
18321;DHT22;54904;54.350;18.664;2024-02-23T14:22:28;13.20;92.10
18321;DHT22;54904;54.350;18.664;2024-02-23T14:24:55;13.10;92.10
18321;DHT22;54904;54.350;18.664;2024-02-23T14:27:24;13.10;92.20
18321;DHT22;54904;54.350;18.664;2024-02-23T14:29:52;13.00;92.10
18321;DHT22;54904;54.350;18.664;2024-02-23T14:32:19;13.00;92.20
18321;DHT22;54904;54.350;18.664;2024-02-23T14:34:47;12.90;92.10
18321;DHT22;54904;54.350;18.664;2024-02-23T14:37:15;12.90;92.20
18321;DHT22;54904;54.350;18.664;2024-02-23T14:39:42;12.80;92.30
18321;DHT22;54904;54.350;18.664;2024-02-23T14:42:09;12.80;92.30
18321;DHT22;54904;54.350;18.664;2024-02-23T14:44:38;12.70;92.30
18321;DHT22;54904;54.350;18.664;2024-02-23T14:47:05;12.70;92.30
18321;DHT22;54904;54.350;18.664;2024-02-23T14:49:32;12.70;92.00
18321;DHT22;54904;54.350;18.664;2024-02-23T14:51:59;12.70;91.90
18321;DHT22;54904;54.350;18.664;2024-02-23T14:54:26;12.70;92.00
18321;DHT22;54904;54.350;18.664;2024-02-23T14:56:55;12.70;91.80
18321;DHT22;54904;54.350;18.664;2024-02-23T14:59:22;12.60;91.80
18321;DHT22;54904;54.350;18.664;2024-02-23T15:01:50;12.60;91.80
18321;DHT22;54904;54.350;18.664;2024-02-23T15:04:18;12.60;91.90
18321;DHT22;54904;54.350;18.664;2024-02-23T15:06:45;12.50;92.00
18321;DHT22;54904;54.350;18.664;2024-02-23T15:09:12;12.50;92.30
18321;DHT22;54904;54.350;18.664;2024-02-23T15:11:39;12.50;91.90
18321;DHT22;54904;54.350;18.664;2024-02-23T15:14:06;12.50;91.90
18321;DHT22;54904;54.350;18.664;2024-02-23T15:16:33;12.50;91.80
18321;DHT22;54904;54.350;18.664;2024-02-23T15:19:03;12.50;91.90
18321;DHT22;54904;54.350;18.664;2024-02-23T15:21:30;12.40;91.80